Hialeah, FL (33010)

8:46 PM EST on February 05, 2016 (GMT -0500)
U of Miami Health System WeatherSTEM | | Change Station
CLOSE
Current Station
Personal Weather Station
Location: Miami, FL
Elevation: 68 ft
Nearby Weather Stations

Elev 68 ft 25.79 °N, 80.22 °W | Updated 1 minute ago

Overcast
Overcast
67.2 °F
Feels Like 67.2 °F
N
18.0
Wind Variable Wind from ENE
Gusts 20.0 mph

Today
High -- | Low -- °F
--% Chance of Precip.
Yesterday
High -- | Low -- °F
Precip. -- in
Pressure 30.16 in
Visibility 10.0 miles
Clouds Scattered Clouds 2800 ft
Mostly Cloudy 3500 ft
Overcast 4500 ft
Dew Point 60 °F
Humidity 77%
Rainfall 0.42 in
Snow Depth Not available.
7:03 AM 6:07 PM
Waning Crescent, 8% visible
METAR KMIA 060053Z 36005KT 10SM SCT028 BKN035 OVC045 19/12 A3016 RMK AO2 SLP211 T01890122
Pressure 30.16 in
Visibility 10.0 miles
Clouds Scattered Clouds 2800 ft
Mostly Cloudy 3500 ft
Overcast 4500 ft
Dew Point 60 °F
Humidity 77%
Rainfall 0.42 in
Snow Depth Not available.
7:03 AM 6:07 PM
Waning Crescent, 8% visible
METAR KMIA 060053Z 36005KT 10SM SCT028 BKN035 OVC045 19/12 A3016 RMK AO2 SLP211 T01890122

10-Day Weather Forecast

Almanac

Astronomy

Feb. 05, 2016 Rise Set
Actual Time
Civil Twilight
Nautical Twilight
Astronomical Twilight
Moon
Length of Visible Light
Length of Day
Tomorrow will be .
, % of the Moon is Illuminated

Today's Extremes

State Highs State Lows

Community

WunderPhotos

Upload Photos

1,890,906 photos uploaded!

WunderBlog® & News

Nearby

Air Quality

  Air Quality AQ Index Pollutant
Not available.

Snow Depth

Station Depth Elevation

Earthquake Activity

City Distance Mag. Time & Date
Minimum magnitude displayed is 2.5.

Coastal Water Temperatures

Place Temperature

Stations

Nearby Weather Stations

Station Location Temp. Windchill Dew Point Humidity Wind Precip. Elev Updated Type
                   

Watches & Warnings

There are currently no watches in effect.